sensor_id;sensor_type;location;lat;lon;timestamp;pressure;altitude;pressure_sealevel;temperature;humidity
14295;BME280;7231;59.370;18.016;2023-04-23T00:01:14;100585.06;;;9.62;51.80
14295;BME280;7231;59.370;18.016;2023-04-23T00:03:45;100583.25;;;9.59;51.94
14295;BME280;7231;59.370;18.016;2023-04-23T00:06:14;100545.13;;;9.37;51.91
14295;BME280;7231;59.370;18.016;2023-04-23T00:08:45;100578.84;;;9.58;52.30
14295;BME280;7231;59.370;18.016;2023-04-23T00:11:14;100570.00;;;9.53;52.01
14295;BME280;7231;59.370;18.016;2023-04-23T00:13:43;100574.38;;;9.54;52.30
14295;BME280;7231;59.370;18.016;2023-04-23T00:16:13;100569.16;;;9.54;52.39
14295;BME280;7231;59.370;18.016;2023-04-23T00:18:41;100554.00;;;9.42;52.33
14295;BME280;7231;59.370;18.016;2023-04-23T00:21:09;100565.56;;;9.51;52.38
14295;BME280;7231;59.370;18.016;2023-04-23T00:23:38;100529.97;;;9.26;52.56
14295;BME280;7231;59.370;18.016;2023-04-23T00:26:07;100561.88;;;9.44;52.83
14295;BME280;7231;59.370;18.016;2023-04-23T00:28:38;100542.22;;;9.27;52.99
14295;BME280;7231;59.370;18.016;2023-04-23T00:31:05;100563.34;;;9.34;53.11
14295;BME280;7231;59.370;18.016;2023-04-23T00:33:34;100543.94;;;9.26;53.08
14295;BME280;7231;59.370;18.016;2023-04-23T00:36:02;100554.56;;;9.32;53.36
14295;BME280;7231;59.370;18.016;2023-04-23T00:38:30;100519.03;;;9.09;53.55
14295;BME280;7231;59.370;18.016;2023-04-23T00:40:59;100550.09;;;9.28;53.44
14295;BME280;7231;59.370;18.016;2023-04-23T00:43:29;100550.00;;;9.25;53.68
14295;BME280;7231;59.370;18.016;2023-04-23T00:45:57;100551.69;;;9.23;53.63
14295;BME280;7231;59.370;18.016;2023-04-23T00:48:26;100549.00;;;9.20;53.63
14295;BME280;7231;59.370;18.016;2023-04-23T00:50:58;100534.69;;;9.07;54.22
14295;BME280;7231;59.370;18.016;2023-04-23T00:53:26;100511.72;;;8.97;53.83
14295;BME280;7231;59.370;18.016;2023-04-23T00:55:54;100505.38;;;8.89;54.15
14295;BME280;7231;59.370;18.016;2023-04-23T00:58:22;100537.34;;;9.09;54.08
14295;BME280;7231;59.370;18.016;2023-04-23T01:00:52;100517.78;;;8.96;54.16
14295;BME280;7231;59.370;18.016;2023-04-23T01:03:20;100544.03;;;8.99;54.25
14295;BME280;7231;59.370;18.016;2023-04-23T01:05:49;100543.09;;;8.97;54.71
14295;BME280;7231;59.370;18.016;2023-04-23T01:08:17;100539.50;;;8.94;54.46
14295;BME280;7231;59.370;18.016;2023-04-23T01:10:46;100537.72;;;8.93;55.21
14295;BME280;7231;59.370;18.016;2023-04-23T01:13:14;100539.31;;;8.88;55.29
14295;BME280;7231;59.370;18.016;2023-04-23T01:15:43;100525.13;;;8.79;55.14
14295;BME280;7231;59.370;18.016;2023-04-23T01:18:13;100542.69;;;8.84;55.42
14295;BME280;7231;59.370;18.016;2023-04-23T01:20:41;100541.78;;;8.83;55.61
14295;BME280;7231;59.370;18.016;2023-04-23T01:23:11;100532.97;;;8.79;55.76
14295;BME280;7231;59.370;18.016;2023-04-23T01:25:39;100536.44;;;8.78;55.68
14295;BME280;7231;59.370;18.016;2023-04-23T01:28:07;100528.44;;;8.74;56.21
14295;BME280;7231;59.370;18.016;2023-04-23T01:30:36;100518.66;;;8.67;56.51
14295;BME280;7231;59.370;18.016;2023-04-23T01:33:05;100522.09;;;8.66;56.48
14295;BME280;7231;59.370;18.016;2023-04-23T01:35:35;100534.41;;;8.70;56.36
14295;BME280;7231;59.370;18.016;2023-04-23T01:38:04;100530.88;;;8.68;56.54
14295;BME280;7231;59.370;18.016;2023-04-23T01:40:35;100512.25;;;8.57;56.72
14295;BME280;7231;59.370;18.016;2023-04-23T01:43:03;100491.19;;;8.53;56.69
14295;BME280;7231;59.370;18.016;2023-04-23T01:45:32;100525.00;;;8.75;56.74
14295;BME280;7231;59.370;18.016;2023-04-23T01:48:00;100534.59;;;8.76;56.84
14295;BME280;7231;59.370;18.016;2023-04-23T01:50:28;100516.16;;;8.71;56.61
14295;BME280;7231;59.370;18.016;2023-04-23T01:52:56;100514.25;;;8.66;57.03
14295;BME280;7231;59.370;18.016;2023-04-23T01:55:24;100524.63;;;8.63;56.98
14295;BME280;7231;59.370;18.016;2023-04-23T01:57:54;100517.47;;;8.57;57.38
14295;BME280;7231;59.370;18.016;2023-04-23T02:00:22;100478.22;;;8.29;56.95
14295;BME280;7231;59.370;18.016;2023-04-23T02:02:51;100517.28;;;8.51;57.62
14295;BME280;7231;59.370;18.016;2023-04-23T02:05:20;100523.25;;;8.47;57.33
14295;BME280;7231;59.370;18.016;2023-04-23T02:07:49;100515.31;;;8.44;57.85
14295;BME280;7231;59.370;18.016;2023-04-23T02:10:17;100521.38;;;8.43;58.09
14295;BME280;7231;59.370;18.016;2023-04-23T02:12:46;100515.13;;;8.38;57.84
14295;BME280;7231;59.370;18.016;2023-04-23T02:15:20;100504.25;;;8.26;58.00
14295;BME280;7231;59.370;18.016;2023-04-23T02:17:48;100532.38;;;8.33;57.86
14295;BME280;7231;59.370;18.016;2023-04-23T02:20:18;100538.13;;;8.23;58.45
14295;BME280;7231;59.370;18.016;2023-04-23T02:22:48;100539.16;;;8.28;58.50
14295;BME280;7231;59.370;18.016;2023-04-23T02:25:17;100556.41;;;8.23;58.45
14295;BME280;7231;59.370;18.016;2023-04-23T02:27:47;100553.75;;;8.21;58.89
14295;BME280;7231;59.370;18.016;2023-04-23T02:30:18;100550.03;;;8.14;59.03
14295;BME280;7231;59.370;18.016;2023-04-23T02:32:46;100567.59;;;8.19;59.39
14295;BME280;7231;59.370;18.016;2023-04-23T02:35:16;100545.78;;;8.18;59.17
14295;BME280;7231;59.370;18.016;2023-04-23T02:37:43;100559.44;;;8.09;59.47
14295;BME280;7231;59.370;18.016;2023-04-23T02:40:11;100476.13;;;7.63;59.55
14295;BME280;7231;59.370;18.016;2023-04-23T02:42:40;100558.19;;;7.98;59.79
14295;BME280;7231;59.370;18.016;2023-04-23T02:45:10;100562.47;;;7.96;59.99
14295;BME280;7231;59.370;18.016;2023-04-23T02:47:39;100523.63;;;7.78;60.09
14295;BME280;7231;59.370;18.016;2023-04-23T02:50:09;100515.56;;;7.72;59.99
14295;BME280;7231;59.370;18.016;2023-04-23T02:52:37;100563.38;;;7.97;59.31
14295;BME280;7231;59.370;18.016;2023-04-23T02:55:07;100550.25;;;7.95;59.67
14295;BME280;7231;59.370;18.016;2023-04-23T02:57:36;100551.00;;;7.91;60.10
14295;BME280;7231;59.370;18.016;2023-04-23T03:00:06;100561.38;;;7.90;60.03
14295;BME280;7231;59.370;18.016;2023-04-23T03:02:35;100553.50;;;7.88;60.27
14295;BME280;7231;59.370;18.016;2023-04-23T03:05:05;100541.28;;;7.87;60.44
14295;BME280;7231;59.370;18.016;2023-04-23T03:07:33;100528.72;;;7.75;60.48
14295;BME280;7231;59.370;18.016;2023-04-23T03:10:03;100534.34;;;7.88;60.24
14295;BME280;7231;59.370;18.016;2023-04-23T03:12:31;100533.41;;;7.86;60.22
14295;BME280;7231;59.370;18.016;2023-04-23T03:14:59;100537.50;;;7.77;60.56
14295;BME280;7231;59.370;18.016;2023-04-23T03:17:27;100513.81;;;7.71;61.00
14295;BME280;7231;59.370;18.016;2023-04-23T03:19:55;100375.31;;;6.89;60.47
14295;BME280;7231;59.370;18.016;2023-04-23T03:22:25;100401.00;;;7.02;60.55
14295;BME280;7231;59.370;18.016;2023-04-23T03:24:52;100529.41;;;7.70;60.95
14295;BME280;7231;59.370;18.016;2023-04-23T03:27:21;100525.81;;;7.66;60.89
14295;BME280;7231;59.370;18.016;2023-04-23T03:29:50;100493.91;;;7.49;60.98
14295;BME280;7231;59.370;18.016;2023-04-23T03:32:18;100529.81;;;7.57;61.60
14295;BME280;7231;59.370;18.016;2023-04-23T03:34:46;100477.97;;;7.16;62.08
14295;BME280;7231;59.370;18.016;2023-04-23T03:37:14;100534.94;;;7.54;61.87
14295;BME280;7231;59.370;18.016;2023-04-23T03:39:45;100508.41;;;7.41;62.06
14295;BME280;7231;59.370;18.016;2023-04-23T03:42:13;100482.63;;;7.25;62.60
14295;BME280;7231;59.370;18.016;2023-04-23T03:44:41;100523.59;;;7.53;62.58
14295;BME280;7231;59.370;18.016;2023-04-23T03:47:09;100481.72;;;7.25;62.82
14295;BME280;7231;59.370;18.016;2023-04-23T03:49:38;100532.38;;;7.55;63.08
14295;BME280;7231;59.370;18.016;2023-04-23T03:52:07;100538.47;;;7.56;63.16
14295;BME280;7231;59.370;18.016;2023-04-23T03:54:36;100531.44;;;7.53;63.14
14295;BME280;7231;59.370;18.016;2023-04-23T03:57:05;100539.31;;;7.55;63.53
14295;BME280;7231;59.370;18.016;2023-04-23T03:59:33;100480.84;;;7.24;63.10
14295;BME280;7231;59.370;18.016;2023-04-23T04:02:02;100536.59;;;7.52;63.63
14295;BME280;7231;59.370;18.016;2023-04-23T04:04:31;100419.47;;;6.84;63.48
14295;BME280;7231;59.370;18.016;2023-04-23T04:06:59;100546.91;;;7.48;63.68
14295;BME280;7231;59.370;18.016;2023-04-23T04:09:28;100544.31;;;7.48;64.36
14295;BME280;7231;59.370;18.016;2023-04-23T04:11:56;100547.69;;;7.46;64.40
14295;BME280;7231;59.370;18.016;2023-04-23T04:14:25;100522.84;;;7.32;65.03
14295;BME280;7231;59.370;18.016;2023-04-23T04:16:53;100543.25;;;7.43;65.35
14295;BME280;7231;59.370;18.016;2023-04-23T04:19:22;100515.84;;;7.31;66.00
14295;BME280;7231;59.370;18.016;2023-04-23T04:21:50;100524.84;;;7.39;65.98
14295;BME280;7231;59.370;18.016;2023-04-23T04:24:18;100468.97;;;7.08;65.67
14295;BME280;7231;59.370;18.016;2023-04-23T04:26:50;100504.84;;;7.39;66.06
14295;BME280;7231;59.370;18.016;2023-04-23T04:29:19;100521.41;;;7.65;66.07
14295;BME280;7231;59.370;18.016;2023-04-23T04:31:50;100497.56;;;7.55;65.81
14295;BME280;7231;59.370;18.016;2023-04-23T04:34:18;100515.09;;;7.59;66.52
14295;BME280;7231;59.370;18.016;2023-04-23T04:36:47;100449.41;;;7.20;67.48
14295;BME280;7231;59.370;18.016;2023-04-23T04:39:14;100489.41;;;7.45;67.00
14295;BME280;7231;59.370;18.016;2023-04-23T04:41:42;100518.81;;;7.65;67.22
14295;BME280;7231;59.370;18.016;2023-04-23T04:44:10;100516.41;;;7.71;67.34
14295;BME280;7231;59.370;18.016;2023-04-23T04:46:40;100518.34;;;7.77;67.14
14295;BME280;7231;59.370;18.016;2023-04-23T04:49:10;100516.75;;;7.82;67.33
14295;BME280;7231;59.370;18.016;2023-04-23T04:51:40;100513.44;;;7.88;67.44
14295;BME280;7231;59.370;18.016;2023-04-23T04:54:08;100510.16;;;7.93;67.67
14295;BME280;7231;59.370;18.016;2023-04-23T04:56:36;100491.63;;;7.86;67.69
14295;BME280;7231;59.370;18.016;2023-04-23T04:59:04;100513.03;;;8.01;68.07
14295;BME280;7231;59.370;18.016;2023-04-23T05:01:32;100503.66;;;8.07;67.84
14295;BME280;7231;59.370;18.016;2023-04-23T05:04:00;100504.81;;;8.15;67.82
14295;BME280;7231;59.370;18.016;2023-04-23T05:06:31;100506.09;;;8.28;67.22
14295;BME280;7231;59.370;18.016;2023-04-23T05:08:59;100493.03;;;8.28;66.97
14295;BME280;7231;59.370;18.016;2023-04-23T05:11:27;100455.28;;;8.19;66.74
14295;BME280;7231;59.370;18.016;2023-04-23T05:13:55;100494.78;;;8.56;66.60
14295;BME280;7231;59.370;18.016;2023-04-23T05:16:23;100517.84;;;8.69;66.62
14295;BME280;7231;59.370;18.016;2023-04-23T05:18:51;100491.38;;;8.59;66.74
14295;BME280;7231;59.370;18.016;2023-04-23T05:21:19;100510.94;;;8.71;66.46
14295;BME280;7231;59.370;18.016;2023-04-23T05:23:48;100438.44;;;8.36;66.59
14295;BME280;7231;59.370;18.016;2023-04-23T05:26:16;100511.91;;;8.75;66.75
14295;BME280;7231;59.370;18.016;2023-04-23T05:28:44;100511.81;;;8.72;66.28
14295;BME280;7231;59.370;18.016;2023-04-23T05:31:13;100509.41;;;8.78;66.60
14295;BME280;7231;59.370;18.016;2023-04-23T05:33:41;100507.19;;;8.92;66.32
14295;BME280;7231;59.370;18.016;2023-04-23T05:36:16;100500.63;;;9.06;66.25
14295;BME280;7231;59.370;18.016;2023-04-23T05:38:44;100498.38;;;9.18;66.02
14295;BME280;7231;59.370;18.016;2023-04-23T05:41:16;100447.13;;;8.95;65.91
14295;BME280;7231;59.370;18.016;2023-04-23T05:43:43;100488.06;;;9.24;65.82
14295;BME280;7231;59.370;18.016;2023-04-23T05:46:11;100486.47;;;9.29;65.62
14295;BME280;7231;59.370;18.016;2023-04-23T05:48:39;100466.25;;;9.24;65.68
14295;BME280;7231;59.370;18.016;2023-04-23T05:51:07;100478.06;;;9.41;65.29
14295;BME280;7231;59.370;18.016;2023-04-23T05:53:35;100488.75;;;9.49;65.12
14295;BME280;7231;59.370;18.016;2023-04-23T05:56:04;100389.53;;;8.92;64.75
14295;BME280;7231;59.370;18.016;2023-04-23T05:58:33;100488.13;;;9.59;64.85
14295;BME280;7231;59.370;18.016;2023-04-23T06:01:01;100488.34;;;9.66;64.46
14295;BME280;7231;59.370;18.016;2023-04-23T06:03:32;100487.59;;;9.72;64.51
14295;BME280;7231;59.370;18.016;2023-04-23T06:06:00;100430.34;;;9.51;64.23
14295;BME280;7231;59.370;18.016;2023-04-23T06:08:28;100436.78;;;9.64;63.72
14295;BME280;7231;59.370;18.016;2023-04-23T06:10:56;100495.22;;;9.97;63.75
14295;BME280;7231;59.370;18.016;2023-04-23T06:13:24;100474.34;;;10.00;63.76
14295;BME280;7231;59.370;18.016;2023-04-23T06:15:55;100482.75;;;10.22;63.38
14295;BME280;7231;59.370;18.016;2023-04-23T06:18:23;100482.19;;;10.35;62.92
14295;BME280;7231;59.370;18.016;2023-04-23T06:20:51;100468.16;;;10.31;62.57
14295;BME280;7231;59.370;18.016;2023-04-23T06:23:19;100485.00;;;10.44;62.31
14295;BME280;7231;59.370;18.016;2023-04-23T06:25:47;100482.66;;;10.56;61.86
14295;BME280;7231;59.370;18.016;2023-04-23T06:28:15;100485.38;;;10.61;61.83
14295;BME280;7231;59.370;18.016;2023-04-23T06:30:43;100476.00;;;10.72;61.82
14295;BME280;7231;59.370;18.016;2023-04-23T06:33:13;100449.75;;;10.70;61.48
14295;BME280;7231;59.370;18.016;2023-04-23T06:35:41;100479.22;;;10.99;60.99
14295;BME280;7231;59.370;18.016;2023-04-23T06:38:09;100469.78;;;11.09;60.68
14295;BME280;7231;59.370;18.016;2023-04-23T06:40:37;100359.31;;;10.50;60.30
14295;BME280;7231;59.370;18.016;2023-04-23T06:43:05;100467.53;;;11.27;60.14
14295;BME280;7231;59.370;18.016;2023-04-23T06:45:33;100471.25;;;11.40;59.92
14295;BME280;7231;59.370;18.016;2023-04-23T06:48:01;100468.94;;;11.57;59.30
14295;BME280;7231;59.370;18.016;2023-04-23T06:50:30;100317.38;;;10.95;58.88
14295;BME280;7231;59.370;18.016;2023-04-23T06:52:59;100406.09;;;11.66;58.74
14295;BME280;7231;59.370;18.016;2023-04-23T06:55:26;100461.38;;;12.25;58.21
14295;BME280;7231;59.370;18.016;2023-04-23T06:57:56;100469.63;;;12.49;57.70
14295;BME280;7231;59.370;18.016;2023-04-23T07:00:24;100454.97;;;12.68;57.20
14295;BME280;7231;59.370;18.016;2023-04-23T07:02:52;100449.25;;;13.06;57.43
14295;BME280;7231;59.370;18.016;2023-04-23T07:05:20;100449.72;;;13.42;56.93
14295;BME280;7231;59.370;18.016;2023-04-23T07:07:50;100448.31;;;13.81;56.95
14295;BME280;7231;59.370;18.016;2023-04-23T07:10:18;100374.63;;;13.94;56.14
14295;BME280;7231;59.370;18.016;2023-04-23T07:12:46;100430.41;;;14.54;54.50
14295;BME280;7231;59.370;18.016;2023-04-23T07:15:15;100446.38;;;14.83;53.35
14295;BME280;7231;59.370;18.016;2023-04-23T07:17:43;100409.34;;;14.65;52.03
14295;BME280;7231;59.370;18.016;2023-04-23T07:20:11;100438.44;;;14.78;51.30
14295;BME280;7231;59.370;18.016;2023-04-23T07:22:39;100413.69;;;14.52;51.39
14295;BME280;7231;59.370;18.016;2023-04-23T07:25:09;100411.09;;;14.59;51.17
14295;BME280;7231;59.370;18.016;2023-04-23T07:27:37;100405.03;;;14.82;51.67
14295;BME280;7231;59.370;18.016;2023-04-23T07:30:06;100412.22;;;15.38;51.04
14295;BME280;7231;59.370;18.016;2023-04-23T07:32:34;100384.06;;;15.49;49.60
14295;BME280;7231;59.370;18.016;2023-04-23T07:35:03;100414.91;;;15.93;49.10
14295;BME280;7231;59.370;18.016;2023-04-23T07:37:31;100415.78;;;16.04;47.69
14295;BME280;7231;59.370;18.016;2023-04-23T07:39:59;100413.13;;;15.88;47.42
14295;BME280;7231;59.370;18.016;2023-04-23T07:42:29;100400.81;;;15.66;46.96
14295;BME280;7231;59.370;18.016;2023-04-23T07:44:57;100408.72;;;15.52;46.69
14295;BME280;7231;59.370;18.016;2023-04-23T07:47:25;100398.09;;;15.25;47.03
14295;BME280;7231;59.370;18.016;2023-04-23T07:49:53;100400.72;;;15.17;46.94
14295;BME280;7231;59.370;18.016;2023-04-23T07:52:21;100328.44;;;14.71;46.74
14295;BME280;7231;59.370;18.016;2023-04-23T07:54:49;100394.56;;;15.12;46.84
14295;BME280;7231;59.370;18.016;2023-04-23T07:57:17;100326.72;;;14.84;46.82
14295;BME280;7231;59.370;18.016;2023-04-23T07:59:46;100394.63;;;15.37;46.47
14295;BME280;7231;59.370;18.016;2023-04-23T08:02:14;100383.16;;;15.44;46.91
14295;BME280;7231;59.370;18.016;2023-04-23T08:04:44;100362.00;;;15.96;47.55
14295;BME280;7231;59.370;18.016;2023-04-23T08:07:15;100380.28;;;16.85;46.97
14295;BME280;7231;59.370;18.016;2023-04-23T08:09:43;100377.38;;;17.31;45.33
14295;BME280;7231;59.370;18.016;2023-04-23T08:12:12;100371.59;;;17.94;45.02
14295;BME280;7231;59.370;18.016;2023-04-23T08:14:43;100363.19;;;18.33;42.98
14295;BME280;7231;59.370;18.016;2023-04-23T08:17:14;100359.81;;;18.94;42.69
14295;BME280;7231;59.370;18.016;2023-04-23T08:19:42;100354.56;;;19.48;41.64
14295;BME280;7231;59.370;18.016;2023-04-23T08:22:10;100347.28;;;19.62;40.46
14295;BME280;7231;59.370;18.016;2023-04-23T08:24:38;100324.94;;;19.72;39.91
14295;BME280;7231;59.370;18.016;2023-04-23T08:27:06;100341.94;;;20.13;38.71
14295;BME280;7231;59.370;18.016;2023-04-23T08:29:35;100338.78;;;19.91;38.58
14295;BME280;7231;59.370;18.016;2023-04-23T08:32:03;100334.16;;;20.01;38.75
14295;BME280;7231;59.370;18.016;2023-04-23T08:34:32;100329.59;;;20.54;37.39
14295;BME280;7231;59.370;18.016;2023-04-23T08:37:01;100336.16;;;20.79;37.55
14295;BME280;7231;59.370;18.016;2023-04-23T08:39:30;100327.09;;;20.46;36.61
14295;BME280;7231;59.370;18.016;2023-04-23T08:42:03;100300.22;;;19.66;36.77
14295;BME280;7231;59.370;18.016;2023-04-23T08:44:33;100265.97;;;18.91;37.27
14295;BME280;7231;59.370;18.016;2023-04-23T08:47:03;100333.06;;;19.06;37.97
14295;BME280;7231;59.370;18.016;2023-04-23T08:49:33;100338.94;;;19.28;38.19
14295;BME280;7231;59.370;18.016;2023-04-23T08:52:11;100292.19;;;19.13;37.83
14295;BME280;7231;59.370;18.016;2023-04-23T08:54:45;100289.41;;;19.23;37.98
14295;BME280;7231;59.370;18.016;2023-04-23T08:57:15;100326.19;;;19.52;37.64
14295;BME280;7231;59.370;18.016;2023-04-23T08:59:46;100329.63;;;19.57;37.68
14295;BME280;7231;59.370;18.016;2023-04-23T09:02:15;100310.63;;;19.80;37.63
14295;BME280;7231;59.370;18.016;2023-04-23T09:04:45;100319.91;;;20.05;36.86
14295;BME280;7231;59.370;18.016;2023-04-23T09:07:17;100318.03;;;20.10;36.99
14295;BME280;7231;59.370;18.016;2023-04-23T09:09:46;100320.28;;;20.31;36.72
14295;BME280;7231;59.370;18.016;2023-04-23T09:12:14;100158.06;;;19.81;36.50
14295;BME280;7231;59.370;18.016;2023-04-23T09:14:42;100286.34;;;20.81;35.94
14295;BME280;7231;59.370;18.016;2023-04-23T09:17:11;100308.88;;;20.68;35.47
14295;BME280;7231;59.370;18.016;2023-04-23T09:19:39;100306.47;;;20.94;35.80
14295;BME280;7231;59.370;18.016;2023-04-23T09:22:09;100294.19;;;21.27;35.44
14295;BME280;7231;59.370;18.016;2023-04-23T09:24:40;100295.16;;;21.23;35.21
14295;BME280;7231;59.370;18.016;2023-04-23T09:27:09;100290.66;;;21.25;35.54
14295;BME280;7231;59.370;18.016;2023-04-23T09:29:37;100299.25;;;21.72;35.21
14295;BME280;7231;59.370;18.016;2023-04-23T09:32:07;100293.88;;;21.74;34.60
14295;BME280;7231;59.370;18.016;2023-04-23T09:34:36;100302.41;;;21.88;34.54
14295;BME280;7231;59.370;18.016;2023-04-23T09:37:05;100263.63;;;21.75;34.30
14295;BME280;7231;59.370;18.016;2023-04-23T09:39:34;100296.59;;;22.06;33.79
14295;BME280;7231;59.370;18.016;2023-04-23T09:42:03;100291.09;;;22.12;33.56
14295;BME280;7231;59.370;18.016;2023-04-23T09:44:34;100281.91;;;22.22;33.52
14295;BME280;7231;59.370;18.016;2023-04-23T09:47:05;100288.13;;;22.52;32.68
14295;BME280;7231;59.370;18.016;2023-04-23T09:49:44;100285.97;;;22.35;32.29
14295;BME280;7231;59.370;18.016;2023-04-23T09:52:12;100282.75;;;22.23;32.51
14295;BME280;7231;59.370;18.016;2023-04-23T09:54:42;100292.88;;;22.12;32.25
14295;BME280;7231;59.370;18.016;2023-04-23T09:57:12;100271.66;;;22.07;32.11
14295;BME280;7231;59.370;18.016;2023-04-23T09:59:40;100280.19;;;21.53;32.43
14295;BME280;7231;59.370;18.016;2023-04-23T10:02:17;100279.03;;;21.63;32.38
14295;BME280;7231;59.370;18.016;2023-04-23T10:04:51;100279.63;;;21.75;31.89
14295;BME280;7231;59.370;18.016;2023-04-23T10:07:32;100290.69;;;21.59;32.27
14295;BME280;7231;59.370;18.016;2023-04-23T10:10:02;100280.72;;;21.32;31.87
14295;BME280;7231;59.370;18.016;2023-04-23T10:12:31;100187.34;;;20.22;32.09
14295;BME280;7231;59.370;18.016;2023-04-23T10:15:19;100281.06;;;20.38;32.82
14295;BME280;7231;59.370;18.016;2023-04-23T10:17:48;100287.91;;;20.53;32.69
14295;BME280;7231;59.370;18.016;2023-04-23T10:20:20;100274.00;;;20.79;32.35
14295;BME280;7231;59.370;18.016;2023-04-23T10:22:49;100257.38;;;20.67;32.03
14295;BME280;7231;59.370;18.016;2023-04-23T10:25:20;100254.03;;;20.59;30.76
14295;BME280;7231;59.370;18.016;2023-04-23T10:27:51;100245.72;;;20.31;31.35
14295;BME280;7231;59.370;18.016;2023-04-23T10:30:20;100252.03;;;20.26;31.81
14295;BME280;7231;59.370;18.016;2023-04-23T10:32:49;100244.50;;;20.48;31.92
14295;BME280;7231;59.370;18.016;2023-04-23T10:35:17;100152.63;;;19.87;31.41
14295;BME280;7231;59.370;18.016;2023-04-23T10:37:46;100217.25;;;19.92;31.17
14295;BME280;7231;59.370;18.016;2023-04-23T10:40:19;100245.69;;;19.90;31.34
14295;BME280;7231;59.370;18.016;2023-04-23T10:42:51;100222.31;;;19.59;31.61
14295;BME280;7231;59.370;18.016;2023-04-23T10:45:21;100229.47;;;19.57;32.11
14295;BME280;7231;59.370;18.016;2023-04-23T10:47:52;100212.59;;;19.58;32.19
14295;BME280;7231;59.370;18.016;2023-04-23T10:50:23;100148.81;;;19.06;32.05
14295;BME280;7231;59.370;18.016;2023-04-23T10:52:53;100213.63;;;19.48;32.19
14295;BME280;7231;59.370;18.016;2023-04-23T10:55:25;100209.53;;;19.80;32.20
14295;BME280;7231;59.370;18.016;2023-04-23T10:57:55;100183.88;;;20.19;32.12
14295;BME280;7231;59.370;18.016;2023-04-23T11:00:27;100201.94;;;20.46;31.66
14295;BME280;7231;59.370;18.016;2023-04-23T11:02:56;100199.38;;;20.41;31.59
14295;BME280;7231;59.370;18.016;2023-04-23T11:05:25;100171.59;;;20.12;31.75
14295;BME280;7231;59.370;18.016;2023-04-23T11:08:05;100200.72;;;20.19;31.79
14295;BME280;7231;59.370;18.016;2023-04-23T11:10:53;100199.22;;;19.61;32.26
14295;BME280;7231;59.370;18.016;2023-04-23T11:13:23;100192.69;;;19.30;32.91
14295;BME280;7231;59.370;18.016;2023-04-23T11:16:14;100188.78;;;19.49;33.28
14295;BME280;7231;59.370;18.016;2023-04-23T11:18:57;100175.19;;;19.67;33.14
14295;BME280;7231;59.370;18.016;2023-04-23T11:21:57;100183.81;;;20.22;33.09
14295;BME280;7231;59.370;18.016;2023-04-23T11:24:26;100166.75;;;20.70;32.82
14295;BME280;7231;59.370;18.016;2023-04-23T11:26:56;100161.00;;;20.86;32.24
14295;BME280;7231;59.370;18.016;2023-04-23T11:29:26;100162.72;;;21.24;32.20
14295;BME280;7231;59.370;18.016;2023-04-23T11:31:55;100168.56;;;21.38;31.65
14295;BME280;7231;59.370;18.016;2023-04-23T11:34:29;100147.44;;;21.30;31.78
14295;BME280;7231;59.370;18.016;2023-04-23T11:36:59;100115.78;;;21.49;31.53
14295;BME280;7231;59.370;18.016;2023-04-23T11:39:27;100146.63;;;22.21;31.34
14295;BME280;7231;59.370;18.016;2023-04-23T11:41:57;100143.91;;;22.51;31.12
14295;BME280;7231;59.370;18.016;2023-04-23T11:44:28;100144.03;;;22.74;31.22
14295;BME280;7231;59.370;18.016;2023-04-23T11:46:59;100138.97;;;22.93;30.92
14295;BME280;7231;59.370;18.016;2023-04-23T11:49:27;100141.13;;;23.08;30.51
14295;BME280;7231;59.370;18.016;2023-04-23T11:51:58;100144.53;;;23.38;30.29
14295;BME280;7231;59.370;18.016;2023-04-23T11:54:27;100138.97;;;23.19;30.30
14295;BME280;7231;59.370;18.016;2023-04-23T11:56:57;100127.59;;;23.13;30.53
14295;BME280;7231;59.370;18.016;2023-04-23T11:59:25;100137.28;;;22.90;30.27
14295;BME280;7231;59.370;18.016;2023-04-23T12:01:55;100125.16;;;22.52;30.53
14295;BME280;7231;59.370;18.016;2023-04-23T12:04:25;100125.47;;;22.97;30.55
14295;BME280;7231;59.370;18.016;2023-04-23T12:06:55;100114.38;;;23.58;29.61
14295;BME280;7231;59.370;18.016;2023-04-23T12:09:24;100097.69;;;23.75;29.70
14295;BME280;7231;59.370;18.016;2023-04-23T12:11:53;100079.94;;;23.72;29.43
14295;BME280;7231;59.370;18.016;2023-04-23T12:14:27;100117.59;;;24.59;29.17
14295;BME280;7231;59.370;18.016;2023-04-23T12:16:57;100102.25;;;24.63;28.73
14295;BME280;7231;59.370;18.016;2023-04-23T12:19:26;100096.53;;;23.82;28.79
14295;BME280;7231;59.370;18.016;2023-04-23T12:21:56;100098.53;;;23.28;29.35
14295;BME280;7231;59.370;18.016;2023-04-23T12:24:25;100104.16;;;23.44;29.22
14295;BME280;7231;59.370;18.016;2023-04-23T12:26:55;100094.03;;;23.54;29.46
14295;BME280;7231;59.370;18.016;2023-04-23T12:29:25;100087.22;;;23.92;28.91
14295;BME280;7231;59.370;18.016;2023-04-23T12:31:58;100083.38;;;23.99;28.78
14295;BME280;7231;59.370;18.016;2023-04-23T12:34:26;100073.59;;;23.75;29.07
14295;BME280;7231;59.370;18.016;2023-04-23T12:36:55;100076.16;;;23.54;28.69
14295;BME280;7231;59.370;18.016;2023-04-23T12:39:26;100080.50;;;23.09;29.22
14295;BME280;7231;59.370;18.016;2023-04-23T12:41:56;100069.88;;;22.54;29.85
14295;BME280;7231;59.370;18.016;2023-04-23T12:44:27;100077.91;;;21.97;30.20
14295;BME280;7231;59.370;18.016;2023-04-23T12:46:57;100073.19;;;21.77;30.84
14295;BME280;7231;59.370;18.016;2023-04-23T12:49:26;100061.53;;;21.80;30.46
14295;BME280;7231;59.370;18.016;2023-04-23T12:51:55;100026.69;;;21.25;30.89
14295;BME280;7231;59.370;18.016;2023-04-23T12:54:28;100083.38;;;21.32;31.35
14295;BME280;7231;59.370;18.016;2023-04-23T12:56:57;100050.94;;;20.82;31.37
14295;BME280;7231;59.370;18.016;2023-04-23T12:59:26;100045.97;;;20.70;31.93
14295;BME280;7231;59.370;18.016;2023-04-23T13:01:55;99982.09;;;20.33;32.08
14295;BME280;7231;59.370;18.016;2023-04-23T13:04:23;100042.88;;;20.85;32.39
14295;BME280;7231;59.370;18.016;2023-04-23T13:06:51;100038.69;;;20.77;32.21